METAR AND TAF INFORMATION


EDDF 211650Z 10007KT 060V130 CAVOK 24/M02 Q1015 NOSIG
EDDF 211620Z 11006KT 070V180 CAVOK 24/M01 Q1016 NOSIG
TAF EDDF 211100Z 2112/2218 09008KT CAVOK BECMG 2117/2119 03008KT BECMG 2209/2211 08013KT PROB30 TEMPO 2213/2216 08015G25KT

 AIRPORT MAP

 RUNWAY INFORMATION
Runway 07C Runway length 13123 ft Runway width 197 ft
Runway elevation 329 ft Runway displaced threshold 0 ft Runway heading 70
Runway 25C Runway length 13123 ft Runway width 197 ft
Runway elevation 364 ft Runway displaced threshold 0 ft Runway heading 250
Runway 07L Runway length 9186 ft Runway width 148 ft
Runway elevation 305 ft Runway displaced threshold 0 ft Runway heading 70
Runway 25R Runway length 9186 ft Runway width 148 ft
Runway elevation 353 ft Runway displaced threshold 0 ft Runway heading 250
Runway 07R Runway length 13123 ft Runway width 148 ft
Runway elevation 328 ft Runway displaced threshold 0 ft Runway heading 70
Runway 25L Runway length 13123 ft Runway width 148 ft
Runway elevation 362 ft Runway displaced threshold 0 ft Runway heading 250
Runway 18 Runway length 13123 ft Runway width 148 ft
Runway elevation 326 ft Runway displaced threshold 0 ft Runway heading 180
Runway 36 Runway length 13123 ft Runway width 148 ft
Runway elevation 316 ft Runway displaced threshold 0 ft Runway heading 360

 AIRPORT FREQUENCIES
Type A/D Name LANGEN RAD Frequency 118.45 MHZ
Type A/D Name LANGEN RAD Frequency 127.275 MHZ
Type AFIS Name LANGEN INF Frequency 119.15 MHZ
Type ATIS Name ATIS Frequency 118.025 MHZ
Type CLD Name DELIVERY Frequency 121.9 MHZ
Type DIR Name DIR Frequency 124.2 MHZ
Type GND Name GND Frequency 121.8 MHZ
Type RMP Name APN Frequency 121.7 MHZ
Type TWR Name TWR Frequency 119.9 MHZ

 AIRPORT NEAR NAVIGATION AIDS
Type VORTAC Name Frankfurt Frequency 114200 KHZ
Type NDB Name Frankfurt Frequency 297 KHZ
Type DME Name Frankfurt Frequency 115900 KHZ
Type NDB Name Frankfurt Frequency 382 KHZ